sensor_id;sensor_type;location;lat;lon;timestamp;temperature;humidity
14014;DHT22;49110;52.584;13.408;2023-12-20T00:00:33;9.40;99.90
14014;DHT22;49110;52.584;13.408;2023-12-20T00:01:33;9.50;99.90
14014;DHT22;49110;52.584;13.408;2023-12-20T00:02:34;9.50;99.90
14014;DHT22;49110;52.584;13.408;2023-12-20T00:03:35;9.50;99.90
14014;DHT22;49110;52.584;13.408;2023-12-20T00:04:35;9.50;99.90
14014;DHT22;49110;52.584;13.408;2023-12-20T00:05:36;9.50;99.90
14014;DHT22;49110;52.584;13.408;2023-12-20T00:06:41;9.40;99.90
14014;DHT22;49110;52.584;13.408;2023-12-20T00:07:41;9.40;99.90
14014;DHT22;49110;52.584;13.408;2023-12-20T00:08:42;9.40;99.90
14014;DHT22;49110;52.584;13.408;2023-12-20T00:09:42;9.40;99.90
14014;DHT22;49110;52.584;13.408;2023-12-20T00:10:43;9.50;99.90
14014;DHT22;49110;52.584;13.408;2023-12-20T00:11:44;9.50;99.90
14014;DHT22;49110;52.584;13.408;2023-12-20T00:12:45;9.50;99.90
14014;DHT22;49110;52.584;13.408;2023-12-20T00:13:45;9.50;99.90
14014;DHT22;49110;52.584;13.408;2023-12-20T00:14:46;9.50;99.90
14014;DHT22;49110;52.584;13.408;2023-12-20T00:15:46;9.50;99.90
14014;DHT22;49110;52.584;13.408;2023-12-20T00:16:47;9.50;99.90
14014;DHT22;49110;52.584;13.408;2023-12-20T00:17:47;9.50;99.90
14014;DHT22;49110;52.584;13.408;2023-12-20T00:18:48;9.50;99.90
14014;DHT22;49110;52.584;13.408;2023-12-20T00:19:51;9.50;99.90
14014;DHT22;49110;52.584;13.408;2023-12-20T00:20:52;9.50;99.90
14014;DHT22;49110;52.584;13.408;2023-12-20T00:21:52;9.50;99.90
14014;DHT22;49110;52.584;13.408;2023-12-20T00:22:56;9.50;99.90
14014;DHT22;49110;52.584;13.408;2023-12-20T00:23:56;9.50;99.90
14014;DHT22;49110;52.584;13.408;2023-12-20T00:24:57;9.40;99.90
14014;DHT22;49110;52.584;13.408;2023-12-20T00:25:57;9.50;99.90
14014;DHT22;49110;52.584;13.408;2023-12-20T00:26:57;9.40;99.90
14014;DHT22;49110;52.584;13.408;2023-12-20T00:27:58;9.40;99.90
14014;DHT22;49110;52.584;13.408;2023-12-20T00:28:58;9.40;99.90
14014;DHT22;49110;52.584;13.408;2023-12-20T00:29:59;9.40;99.90
14014;DHT22;49110;52.584;13.408;2023-12-20T00:31:00;9.40;99.90
14014;DHT22;49110;52.584;13.408;2023-12-20T00:32:00;9.40;99.90
14014;DHT22;49110;52.584;13.408;2023-12-20T00:33:01;9.40;99.90
14014;DHT22;49110;52.584;13.408;2023-12-20T00:34:01;9.40;99.90
14014;DHT22;49110;52.584;13.408;2023-12-20T00:35:02;9.40;99.90
14014;DHT22;49110;52.584;13.408;2023-12-20T00:36:03;9.40;99.90
14014;DHT22;49110;52.584;13.408;2023-12-20T00:37:04;9.40;99.90
14014;DHT22;49110;52.584;13.408;2023-12-20T00:38:04;9.40;99.90
14014;DHT22;49110;52.584;13.408;2023-12-20T00:39:05;9.40;99.90
14014;DHT22;49110;52.584;13.408;2023-12-20T00:40:07;9.40;99.90
14014;DHT22;49110;52.584;13.408;2023-12-20T00:41:08;9.40;99.90
14014;DHT22;49110;52.584;13.408;2023-12-20T00:42:08;9.50;99.90
14014;DHT22;49110;52.584;13.408;2023-12-20T00:43:09;9.50;99.90
14014;DHT22;49110;52.584;13.408;2023-12-20T00:44:09;9.50;99.90
14014;DHT22;49110;52.584;13.408;2023-12-20T00:45:09;9.40;99.90
14014;DHT22;49110;52.584;13.408;2023-12-20T00:46:10;9.40;99.90
14014;DHT22;49110;52.584;13.408;2023-12-20T00:47:10;9.50;99.90
14014;DHT22;49110;52.584;13.408;2023-12-20T00:48:11;9.50;99.90
14014;DHT22;49110;52.584;13.408;2023-12-20T00:49:12;9.50;99.90
14014;DHT22;49110;52.584;13.408;2023-12-20T00:50:12;9.50;99.90
14014;DHT22;49110;52.584;13.408;2023-12-20T00:51:13;9.50;99.90
14014;DHT22;49110;52.584;13.408;2023-12-20T00:52:13;9.50;99.90
14014;DHT22;49110;52.584;13.408;2023-12-20T00:53:14;9.50;99.90
14014;DHT22;49110;52.584;13.408;2023-12-20T00:54:14;9.50;99.90
14014;DHT22;49110;52.584;13.408;2023-12-20T00:55:15;9.50;99.90
14014;DHT22;49110;52.584;13.408;2023-12-20T00:56:16;9.50;99.90
14014;DHT22;49110;52.584;13.408;2023-12-20T00:57:16;9.50;99.90
14014;DHT22;49110;52.584;13.408;2023-12-20T00:58:17;9.50;99.90
14014;DHT22;49110;52.584;13.408;2023-12-20T00:59:17;9.50;99.90
14014;DHT22;49110;52.584;13.408;2023-12-20T01:00:19;9.40;99.90
14014;DHT22;49110;52.584;13.408;2023-12-20T01:01:19;9.40;99.90
14014;DHT22;49110;52.584;13.408;2023-12-20T01:02:20;9.40;99.90
14014;DHT22;49110;52.584;13.408;2023-12-20T01:03:20;9.40;99.90
14014;DHT22;49110;52.584;13.408;2023-12-20T01:04:21;9.40;99.90
14014;DHT22;49110;52.584;13.408;2023-12-20T01:05:22;9.50;99.90
14014;DHT22;49110;52.584;13.408;2023-12-20T01:06:25;9.50;99.90
14014;DHT22;49110;52.584;13.408;2023-12-20T01:07:25;9.50;99.90
14014;DHT22;49110;52.584;13.408;2023-12-20T01:08:26;9.50;99.90
14014;DHT22;49110;52.584;13.408;2023-12-20T01:09:26;9.50;99.90
14014;DHT22;49110;52.584;13.408;2023-12-20T01:10:30;9.50;99.90
14014;DHT22;49110;52.584;13.408;2023-12-20T01:11:30;9.50;99.90
14014;DHT22;49110;52.584;13.408;2023-12-20T01:12:31;9.50;99.90
14014;DHT22;49110;52.584;13.408;2023-12-20T01:13:31;9.40;99.90
14014;DHT22;49110;52.584;13.408;2023-12-20T01:14:32;9.40;99.90
14014;DHT22;49110;52.584;13.408;2023-12-20T01:15:32;9.40;99.90
14014;DHT22;49110;52.584;13.408;2023-12-20T01:16:33;9.50;99.90
14014;DHT22;49110;52.584;13.408;2023-12-20T01:17:33;9.40;99.90
14014;DHT22;49110;52.584;13.408;2023-12-20T01:18:34;9.40;99.90
14014;DHT22;49110;52.584;13.408;2023-12-20T01:19:35;9.40;99.90
14014;DHT22;49110;52.584;13.408;2023-12-20T01:20:35;9.50;99.90
14014;DHT22;49110;52.584;13.408;2023-12-20T01:21:36;9.50;99.90
14014;DHT22;49110;52.584;13.408;2023-12-20T01:22:37;9.50;99.90
14014;DHT22;49110;52.584;13.408;2023-12-20T01:23:37;9.40;99.90
14014;DHT22;49110;52.584;13.408;2023-12-20T01:24:38;9.40;99.90
14014;DHT22;49110;52.584;13.408;2023-12-20T01:25:39;9.40;99.90
14014;DHT22;49110;52.584;13.408;2023-12-20T01:26:39;9.40;99.90
14014;DHT22;49110;52.584;13.408;2023-12-20T01:27:40;9.40;99.90
14014;DHT22;49110;52.584;13.408;2023-12-20T01:28:40;9.40;99.90
14014;DHT22;49110;52.584;13.408;2023-12-20T01:29:41;9.40;99.90
14014;DHT22;49110;52.584;13.408;2023-12-20T01:30:41;9.40;99.90
14014;DHT22;49110;52.584;13.408;2023-12-20T01:31:42;9.40;99.90
14014;DHT22;49110;52.584;13.408;2023-12-20T01:32:42;9.40;99.90
14014;DHT22;49110;52.584;13.408;2023-12-20T01:33:43;9.40;99.90
14014;DHT22;49110;52.584;13.408;2023-12-20T01:34:43;9.40;99.90
14014;DHT22;49110;52.584;13.408;2023-12-20T01:35:44;9.40;99.90
14014;DHT22;49110;52.584;13.408;2023-12-20T01:36:44;9.40;99.90
14014;DHT22;49110;52.584;13.408;2023-12-20T01:37:45;9.40;99.90
14014;DHT22;49110;52.584;13.408;2023-12-20T01:38:45;9.40;99.90
14014;DHT22;49110;52.584;13.408;2023-12-20T01:39:46;9.40;99.90
14014;DHT22;49110;52.584;13.408;2023-12-20T01:40:46;9.40;99.90
14014;DHT22;49110;52.584;13.408;2023-12-20T01:41:47;9.40;99.90
14014;DHT22;49110;52.584;13.408;2023-12-20T01:42:47;9.40;99.90
14014;DHT22;49110;52.584;13.408;2023-12-20T01:43:48;9.50;99.90
14014;DHT22;49110;52.584;13.408;2023-12-20T01:44:48;9.50;99.90
14014;DHT22;49110;52.584;13.408;2023-12-20T01:45:49;9.40;99.90
14014;DHT22;49110;52.584;13.408;2023-12-20T01:46:49;9.40;99.90
14014;DHT22;49110;52.584;13.408;2023-12-20T01:47:50;9.40;99.90
14014;DHT22;49110;52.584;13.408;2023-12-20T01:48:51;9.40;99.90
14014;DHT22;49110;52.584;13.408;2023-12-20T01:49:52;9.40;99.90
14014;DHT22;49110;52.584;13.408;2023-12-20T01:50:53;9.40;99.90
14014;DHT22;49110;52.584;13.408;2023-12-20T01:51:54;9.30;99.90
14014;DHT22;49110;52.584;13.408;2023-12-20T01:52:56;9.30;99.90
14014;DHT22;49110;52.584;13.408;2023-12-20T01:54:00;9.40;99.90
14014;DHT22;49110;52.584;13.408;2023-12-20T01:55:01;9.40;99.90
14014;DHT22;49110;52.584;13.408;2023-12-20T01:56:04;9.30;99.90
14014;DHT22;49110;52.584;13.408;2023-12-20T01:57:05;9.40;99.90
14014;DHT22;49110;52.584;13.408;2023-12-20T01:58:08;9.30;99.90
14014;DHT22;49110;52.584;13.408;2023-12-20T01:59:09;9.30;99.90
14014;DHT22;49110;52.584;13.408;2023-12-20T02:00:11;9.30;99.90
14014;DHT22;49110;52.584;13.408;2023-12-20T02:01:12;9.30;99.90
14014;DHT22;49110;52.584;13.408;2023-12-20T02:02:14;9.30;99.90
14014;DHT22;49110;52.584;13.408;2023-12-20T02:03:16;9.30;99.90
14014;DHT22;49110;52.584;13.408;2023-12-20T02:04:17;9.30;99.90
14014;DHT22;49110;52.584;13.408;2023-12-20T02:05:17;9.30;99.90
14014;DHT22;49110;52.584;13.408;2023-12-20T02:06:18;9.30;99.90
14014;DHT22;49110;52.584;13.408;2023-12-20T02:07:21;9.30;99.90
14014;DHT22;49110;52.584;13.408;2023-12-20T02:08:22;9.40;99.90
14014;DHT22;49110;52.584;13.408;2023-12-20T02:09:23;9.40;99.90
14014;DHT22;49110;52.584;13.408;2023-12-20T02:10:24;9.40;99.90
14014;DHT22;49110;52.584;13.408;2023-12-20T02:11:25;9.40;99.90
14014;DHT22;49110;52.584;13.408;2023-12-20T02:12:26;9.40;99.90
14014;DHT22;49110;52.584;13.408;2023-12-20T02:13:26;9.40;99.90
14014;DHT22;49110;52.584;13.408;2023-12-20T02:14:27;9.40;99.90
14014;DHT22;49110;52.584;13.408;2023-12-20T02:15:27;9.40;99.90
14014;DHT22;49110;52.584;13.408;2023-12-20T02:16:28;9.40;99.90
14014;DHT22;49110;52.584;13.408;2023-12-20T02:17:29;9.30;99.90
14014;DHT22;49110;52.584;13.408;2023-12-20T02:18:30;9.30;99.90
14014;DHT22;49110;52.584;13.408;2023-12-20T02:19:31;9.30;99.90
14014;DHT22;49110;52.584;13.408;2023-12-20T02:20:32;9.30;99.90
14014;DHT22;49110;52.584;13.408;2023-12-20T02:21:32;9.30;99.90
14014;DHT22;49110;52.584;13.408;2023-12-20T02:22:34;9.40;99.90
14014;DHT22;49110;52.584;13.408;2023-12-20T02:23:35;9.30;99.90
14014;DHT22;49110;52.584;13.408;2023-12-20T02:24:35;9.30;99.90
14014;DHT22;49110;52.584;13.408;2023-12-20T02:25:36;9.30;99.90
14014;DHT22;49110;52.584;13.408;2023-12-20T02:26:38;9.30;99.90
14014;DHT22;49110;52.584;13.408;2023-12-20T02:27:39;9.30;99.90
14014;DHT22;49110;52.584;13.408;2023-12-20T02:28:40;9.30;99.90
14014;DHT22;49110;52.584;13.408;2023-12-20T02:29:40;9.30;99.90
14014;DHT22;49110;52.584;13.408;2023-12-20T02:30:41;9.30;99.90
14014;DHT22;49110;52.584;13.408;2023-12-20T02:31:41;9.30;99.90
14014;DHT22;49110;52.584;13.408;2023-12-20T02:32:42;9.30;99.90
14014;DHT22;49110;52.584;13.408;2023-12-20T02:33:42;9.30;99.90
14014;DHT22;49110;52.584;13.408;2023-12-20T02:34:43;9.30;99.90
14014;DHT22;49110;52.584;13.408;2023-12-20T02:35:43;9.30;99.90
14014;DHT22;49110;52.584;13.408;2023-12-20T02:36:44;9.30;99.90
14014;DHT22;49110;52.584;13.408;2023-12-20T02:37:44;9.20;99.90
14014;DHT22;49110;52.584;13.408;2023-12-20T02:38:45;9.20;99.90
14014;DHT22;49110;52.584;13.408;2023-12-20T02:39:45;9.20;99.90
14014;DHT22;49110;52.584;13.408;2023-12-20T02:40:46;9.10;99.90
14014;DHT22;49110;52.584;13.408;2023-12-20T02:41:47;9.10;99.90
14014;DHT22;49110;52.584;13.408;2023-12-20T02:42:47;9.10;99.90
14014;DHT22;49110;52.584;13.408;2023-12-20T02:43:48;9.10;99.90
14014;DHT22;49110;52.584;13.408;2023-12-20T02:44:48;9.10;99.90
14014;DHT22;49110;52.584;13.408;2023-12-20T02:45:49;9.00;99.90
14014;DHT22;49110;52.584;13.408;2023-12-20T02:46:49;9.00;99.90
14014;DHT22;49110;52.584;13.408;2023-12-20T02:47:49;9.00;99.90
14014;DHT22;49110;52.584;13.408;2023-12-20T02:48:50;9.00;99.90
14014;DHT22;49110;52.584;13.408;2023-12-20T02:49:50;9.10;99.90
14014;DHT22;49110;52.584;13.408;2023-12-20T02:50:53;9.10;99.90
14014;DHT22;49110;52.584;13.408;2023-12-20T02:51:53;9.10;99.90
14014;DHT22;49110;52.584;13.408;2023-12-20T02:52:54;9.10;99.90
14014;DHT22;49110;52.584;13.408;2023-12-20T02:53:54;9.10;99.90
14014;DHT22;49110;52.584;13.408;2023-12-20T02:54:55;9.10;99.90
14014;DHT22;49110;52.584;13.408;2023-12-20T02:55:55;9.10;99.90
14014;DHT22;49110;52.584;13.408;2023-12-20T02:56:55;9.10;99.90
14014;DHT22;49110;52.584;13.408;2023-12-20T02:57:56;9.10;99.90
14014;DHT22;49110;52.584;13.408;2023-12-20T02:58:56;9.10;99.90
14014;DHT22;49110;52.584;13.408;2023-12-20T02:59:57;9.10;99.90
14014;DHT22;49110;52.584;13.408;2023-12-20T03:00:57;9.10;99.90
14014;DHT22;49110;52.584;13.408;2023-12-20T03:01:58;9.10;99.90
14014;DHT22;49110;52.584;13.408;2023-12-20T03:02:58;9.10;99.90
14014;DHT22;49110;52.584;13.408;2023-12-20T03:04:00;9.10;99.90
14014;DHT22;49110;52.584;13.408;2023-12-20T03:05:01;9.10;99.90
14014;DHT22;49110;52.584;13.408;2023-12-20T03:06:01;9.10;99.90
14014;DHT22;49110;52.584;13.408;2023-12-20T03:07:02;9.10;99.90
14014;DHT22;49110;52.584;13.408;2023-12-20T03:08:02;9.00;99.90
14014;DHT22;49110;52.584;13.408;2023-12-20T03:09:03;9.00;99.90
14014;DHT22;49110;52.584;13.408;2023-12-20T03:10:05;9.00;99.90
14014;DHT22;49110;52.584;13.408;2023-12-20T03:11:06;9.00;99.90
14014;DHT22;49110;52.584;13.408;2023-12-20T03:12:07;9.00;99.90
14014;DHT22;49110;52.584;13.408;2023-12-20T03:13:07;9.00;99.90
14014;DHT22;49110;52.584;13.408;2023-12-20T03:14:08;9.00;99.90
14014;DHT22;49110;52.584;13.408;2023-12-20T03:15:08;8.90;99.90
14014;DHT22;49110;52.584;13.408;2023-12-20T03:16:10;8.90;99.90
14014;DHT22;49110;52.584;13.408;2023-12-20T03:17:10;9.00;99.90
14014;DHT22;49110;52.584;13.408;2023-12-20T03:18:11;8.90;99.90
14014;DHT22;49110;52.584;13.408;2023-12-20T03:19:12;8.90;99.90
14014;DHT22;49110;52.584;13.408;2023-12-20T03:20:12;8.90;99.90
14014;DHT22;49110;52.584;13.408;2023-12-20T03:21:13;8.90;99.90
14014;DHT22;49110;52.584;13.408;2023-12-20T03:22:13;8.90;99.90
14014;DHT22;49110;52.584;13.408;2023-12-20T03:23:14;8.90;99.90
14014;DHT22;49110;52.584;13.408;2023-12-20T03:24:14;8.90;99.90
14014;DHT22;49110;52.584;13.408;2023-12-20T03:25:14;8.90;99.90
14014;DHT22;49110;52.584;13.408;2023-12-20T03:26:15;8.80;99.90
14014;DHT22;49110;52.584;13.408;2023-12-20T03:27:15;8.80;99.90
14014;DHT22;49110;52.584;13.408;2023-12-20T03:28:16;8.80;99.90
14014;DHT22;49110;52.584;13.408;2023-12-20T03:29:16;8.80;99.90
14014;DHT22;49110;52.584;13.408;2023-12-20T03:30:17;8.80;99.90
14014;DHT22;49110;52.584;13.408;2023-12-20T03:31:17;8.70;99.90
14014;DHT22;49110;52.584;13.408;2023-12-20T03:32:18;8.70;99.90
14014;DHT22;49110;52.584;13.408;2023-12-20T03:33:18;8.70;99.90
14014;DHT22;49110;52.584;13.408;2023-12-20T03:34:19;8.70;99.90
14014;DHT22;49110;52.584;13.408;2023-12-20T03:35:19;8.70;99.90
14014;DHT22;49110;52.584;13.408;2023-12-20T03:36:20;8.70;99.90
14014;DHT22;49110;52.584;13.408;2023-12-20T03:37:22;8.60;99.90
14014;DHT22;49110;52.584;13.408;2023-12-20T03:38:23;8.60;99.90
14014;DHT22;49110;52.584;13.408;2023-12-20T03:39:29;8.60;99.90
14014;DHT22;49110;52.584;13.408;2023-12-20T03:40:30;8.60;99.90
14014;DHT22;49110;52.584;13.408;2023-12-20T03:41:30;8.60;99.90
14014;DHT22;49110;52.584;13.408;2023-12-20T03:42:31;8.60;99.90
14014;DHT22;49110;52.584;13.408;2023-12-20T03:43:31;8.70;99.90
14014;DHT22;49110;52.584;13.408;2023-12-20T03:44:31;8.70;99.90
14014;DHT22;49110;52.584;13.408;2023-12-20T03:45:32;8.70;99.90
14014;DHT22;49110;52.584;13.408;2023-12-20T03:46:33;8.70;99.90
14014;DHT22;49110;52.584;13.408;2023-12-20T03:47:33;8.70;99.90
14014;DHT22;49110;52.584;13.408;2023-12-20T03:48:34;8.70;99.90
14014;DHT22;49110;52.584;13.408;2023-12-20T03:49:34;8.70;99.90
14014;DHT22;49110;52.584;13.408;2023-12-20T03:50:37;8.60;99.90
14014;DHT22;49110;52.584;13.408;2023-12-20T03:51:37;8.70;99.90
14014;DHT22;49110;52.584;13.408;2023-12-20T03:52:38;8.60;99.90
14014;DHT22;49110;52.584;13.408;2023-12-20T03:53:38;8.60;99.90
14014;DHT22;49110;52.584;13.408;2023-12-20T03:54:40;8.60;99.90
14014;DHT22;49110;52.584;13.408;2023-12-20T03:55:44;8.60;99.90
14014;DHT22;49110;52.584;13.408;2023-12-20T03:56:44;8.60;99.90
14014;DHT22;49110;52.584;13.408;2023-12-20T03:57:45;8.60;99.90
14014;DHT22;49110;52.584;13.408;2023-12-20T03:58:45;8.60;99.90
14014;DHT22;49110;52.584;13.408;2023-12-20T03:59:46;8.60;99.90
14014;DHT22;49110;52.584;13.408;2023-12-20T04:00:47;8.60;99.90
14014;DHT22;49110;52.584;13.408;2023-12-20T04:01:47;8.60;99.90
14014;DHT22;49110;52.584;13.408;2023-12-20T04:02:48;8.60;99.90
14014;DHT22;49110;52.584;13.408;2023-12-20T04:03:48;8.60;99.90
14014;DHT22;49110;52.584;13.408;2023-12-20T04:04:49;8.60;99.90
14014;DHT22;49110;52.584;13.408;2023-12-20T04:05:49;8.60;99.90
14014;DHT22;49110;52.584;13.408;2023-12-20T04:06:50;8.60;99.90
14014;DHT22;49110;52.584;13.408;2023-12-20T04:07:50;8.60;99.90
14014;DHT22;49110;52.584;13.408;2023-12-20T04:08:51;8.60;99.90
14014;DHT22;49110;52.584;13.408;2023-12-20T04:09:52;8.50;99.90
14014;DHT22;49110;52.584;13.408;2023-12-20T04:10:52;8.50;99.90
14014;DHT22;49110;52.584;13.408;2023-12-20T04:11:53;8.50;99.90
14014;DHT22;49110;52.584;13.408;2023-12-20T04:12:53;8.50;99.90
14014;DHT22;49110;52.584;13.408;2023-12-20T04:13:55;8.50;99.90
14014;DHT22;49110;52.584;13.408;2023-12-20T04:14:56;8.60;99.90
14014;DHT22;49110;52.584;13.408;2023-12-20T04:15:57;8.70;99.90
14014;DHT22;49110;52.584;13.408;2023-12-20T04:16:57;8.70;99.90
14014;DHT22;49110;52.584;13.408;2023-12-20T04:17:58;8.70;99.90
14014;DHT22;49110;52.584;13.408;2023-12-20T04:18:58;8.70;99.90
14014;DHT22;49110;52.584;13.408;2023-12-20T04:19:59;8.70;99.90
14014;DHT22;49110;52.584;13.408;2023-12-20T04:20:59;8.80;99.90
14014;DHT22;49110;52.584;13.408;2023-12-20T04:22:00;8.80;99.90
14014;DHT22;49110;52.584;13.408;2023-12-20T04:23:00;8.70;99.90
14014;DHT22;49110;52.584;13.408;2023-12-20T04:24:01;8.70;99.90
14014;DHT22;49110;52.584;13.408;2023-12-20T04:25:05;8.80;99.90
14014;DHT22;49110;52.584;13.408;2023-12-20T04:26:05;8.80;99.90
14014;DHT22;49110;52.584;13.408;2023-12-20T04:27:06;8.80;99.90
14014;DHT22;49110;52.584;13.408;2023-12-20T04:28:06;8.80;99.90
14014;DHT22;49110;52.584;13.408;2023-12-20T04:29:08;8.70;99.90
14014;DHT22;49110;52.584;13.408;2023-12-20T04:30:08;8.70;99.90
14014;DHT22;49110;52.584;13.408;2023-12-20T04:31:09;8.70;99.90
14014;DHT22;49110;52.584;13.408;2023-12-20T04:32:09;8.60;99.90
14014;DHT22;49110;52.584;13.408;2023-12-20T04:33:10;8.60;99.90
14014;DHT22;49110;52.584;13.408;2023-12-20T04:34:11;8.60;99.90
14014;DHT22;49110;52.584;13.408;2023-12-20T04:35:12;8.60;99.90
14014;DHT22;49110;52.584;13.408;2023-12-20T04:36:12;8.60;99.90
14014;DHT22;49110;52.584;13.408;2023-12-20T04:37:13;8.60;99.90
14014;DHT22;49110;52.584;13.408;2023-12-20T04:38:13;8.60;99.90
14014;DHT22;49110;52.584;13.408;2023-12-20T04:39:14;8.60;99.90
14014;DHT22;49110;52.584;13.408;2023-12-20T04:40:15;8.50;99.90
14014;DHT22;49110;52.584;13.408;2023-12-20T04:41:15;8.60;99.90
14014;DHT22;49110;52.584;13.408;2023-12-20T04:42:17;8.50;99.90
14014;DHT22;49110;52.584;13.408;2023-12-20T04:43:17;8.60;99.90
14014;DHT22;49110;52.584;13.408;2023-12-20T04:44:18;8.60;99.90
14014;DHT22;49110;52.584;13.408;2023-12-20T04:45:18;8.50;99.90
14014;DHT22;49110;52.584;13.408;2023-12-20T04:46:20;8.50;99.90
14014;DHT22;49110;52.584;13.408;2023-12-20T04:47:20;8.50;99.90
14014;DHT22;49110;52.584;13.408;2023-12-20T04:48:20;8.50;99.90
14014;DHT22;49110;52.584;13.408;2023-12-20T04:49:21;8.50;99.90
14014;DHT22;49110;52.584;13.408;2023-12-20T04:50:21;8.50;99.90
14014;DHT22;49110;52.584;13.408;2023-12-20T04:51:22;8.40;99.90
14014;DHT22;49110;52.584;13.408;2023-12-20T04:52:22;8.40;99.90
14014;DHT22;49110;52.584;13.408;2023-12-20T04:53:23;8.30;99.90
14014;DHT22;49110;52.584;13.408;2023-12-20T04:54:23;8.30;99.90
14014;DHT22;49110;52.584;13.408;2023-12-20T04:55:24;8.30;99.90
14014;DHT22;49110;52.584;13.408;2023-12-20T04:56:24;8.20;99.90
14014;DHT22;49110;52.584;13.408;2023-12-20T04:57:25;8.20;99.90
14014;DHT22;49110;52.584;13.408;2023-12-20T04:58:25;8.20;99.90
14014;DHT22;49110;52.584;13.408;2023-12-20T04:59:26;8.20;99.90
14014;DHT22;49110;52.584;13.408;2023-12-20T05:00:26;8.20;99.90
14014;DHT22;49110;52.584;13.408;2023-12-20T05:01:27;8.20;99.90
14014;DHT22;49110;52.584;13.408;2023-12-20T05:02:27;8.30;99.90
14014;DHT22;49110;52.584;13.408;2023-12-20T05:03:28;8.30;99.90
14014;DHT22;49110;52.584;13.408;2023-12-20T05:04:29;8.30;99.90
14014;DHT22;49110;52.584;13.408;2023-12-20T05:05:29;8.40;99.90
14014;DHT22;49110;52.584;13.408;2023-12-20T05:06:30;8.40;99.90
14014;DHT22;49110;52.584;13.408;2023-12-20T05:07:30;8.40;99.90
14014;DHT22;49110;52.584;13.408;2023-12-20T05:08:31;8.50;99.90
14014;DHT22;49110;52.584;13.408;2023-12-20T05:09:31;8.50;99.90
14014;DHT22;49110;52.584;13.408;2023-12-20T05:10:32;8.50;99.90
14014;DHT22;49110;52.584;13.408;2023-12-20T05:11:32;8.50;99.90
14014;DHT22;49110;52.584;13.408;2023-12-20T05:12:33;8.50;99.90
14014;DHT22;49110;52.584;13.408;2023-12-20T05:13:33;8.50;99.90
14014;DHT22;49110;52.584;13.408;2023-12-20T05:14:34;8.50;99.90
14014;DHT22;49110;52.584;13.408;2023-12-20T05:15:34;8.50;99.90
14014;DHT22;49110;52.584;13.408;2023-12-20T05:16:35;8.50;99.90
14014;DHT22;49110;52.584;13.408;2023-12-20T05:17:35;8.40;99.90
14014;DHT22;49110;52.584;13.408;2023-12-20T05:18:35;8.40;99.90
14014;DHT22;49110;52.584;13.408;2023-12-20T05:19:36;8.40;99.90
14014;DHT22;49110;52.584;13.408;2023-12-20T05:20:36;8.40;99.90
14014;DHT22;49110;52.584;13.408;2023-12-20T05:21:37;8.40;99.90
14014;DHT22;49110;52.584;13.408;2023-12-20T05:22:38;8.40;99.90
14014;DHT22;49110;52.584;13.408;2023-12-20T05:23:38;8.40;99.90
14014;DHT22;49110;52.584;13.408;2023-12-20T05:24:39;8.40;99.90
14014;DHT22;49110;52.584;13.408;2023-12-20T05:25:39;8.40;99.90
14014;DHT22;49110;52.584;13.408;2023-12-20T05:26:40;8.30;99.90
14014;DHT22;49110;52.584;13.408;2023-12-20T05:27:40;8.30;99.90
14014;DHT22;49110;52.584;13.408;2023-12-20T05:28:41;8.20;99.90
14014;DHT22;49110;52.584;13.408;2023-12-20T05:29:41;8.30;99.90
14014;DHT22;49110;52.584;13.408;2023-12-20T05:30:42;8.20;99.90
14014;DHT22;49110;52.584;13.408;2023-12-20T05:31:43;8.20;99.90
14014;DHT22;49110;52.584;13.408;2023-12-20T05:32:43;8.20;99.90
14014;DHT22;49110;52.584;13.408;2023-12-20T05:33:44;8.20;99.90
14014;DHT22;49110;52.584;13.408;2023-12-20T05:34:44;8.20;99.90
14014;DHT22;49110;52.584;13.408;2023-12-20T05:35:45;8.20;99.90
14014;DHT22;49110;52.584;13.408;2023-12-20T05:36:45;8.20;99.90
14014;DHT22;49110;52.584;13.408;2023-12-20T05:37:46;8.10;99.90
14014;DHT22;49110;52.584;13.408;2023-12-20T05:38:46;8.10;99.90
14014;DHT22;49110;52.584;13.408;2023-12-20T05:39:47;8.10;99.90
14014;DHT22;49110;52.584;13.408;2023-12-20T05:40:47;8.10;99.90
14014;DHT22;49110;52.584;13.408;2023-12-20T05:41:47;8.10;99.90
14014;DHT22;49110;52.584;13.408;2023-12-20T05:42:48;8.10;99.90
14014;DHT22;49110;52.584;13.408;2023-12-20T05:43:48;8.10;99.90
14014;DHT22;49110;52.584;13.408;2023-12-20T05:44:49;8.10;99.90
14014;DHT22;49110;52.584;13.408;2023-12-20T05:45:49;8.10;99.90
14014;DHT22;49110;52.584;13.408;2023-12-20T05:46:50;8.10;99.90
14014;DHT22;49110;52.584;13.408;2023-12-20T05:47:50;8.10;99.90
14014;DHT22;49110;52.584;13.408;2023-12-20T05:48:51;8.10;99.90
14014;DHT22;49110;52.584;13.408;2023-12-20T05:49:51;8.10;99.90
14014;DHT22;49110;52.584;13.408;2023-12-20T05:50:52;8.00;99.90
14014;DHT22;49110;52.584;13.408;2023-12-20T05:51:52;8.00;99.90
14014;DHT22;49110;52.584;13.408;2023-12-20T05:52:54;8.00;99.90
14014;DHT22;49110;52.584;13.408;2023-12-20T05:53:55;8.10;99.90
14014;DHT22;49110;52.584;13.408;2023-12-20T05:54:56;8.00;99.90
14014;DHT22;49110;52.584;13.408;2023-12-20T05:55:58;8.10;99.90
14014;DHT22;49110;52.584;13.408;2023-12-20T05:56:58;8.10;99.90
14014;DHT22;49110;52.584;13.408;2023-12-20T05:57:59;8.10;99.90
14014;DHT22;49110;52.584;13.408;2023-12-20T05:58:59;8.10;99.90
14014;DHT22;49110;52.584;13.408;2023-12-20T06:00:00;8.10;99.90
14014;DHT22;49110;52.584;13.408;2023-12-20T06:01:00;8.10;99.90
14014;DHT22;49110;52.584;13.408;2023-12-20T06:02:02;8.10;99.90
14014;DHT22;49110;52.584;13.408;2023-12-20T06:03:03;8.20;99.90
14014;DHT22;49110;52.584;13.408;2023-12-20T06:04:05;8.10;99.90
14014;DHT22;49110;52.584;13.408;2023-12-20T06:05:06;8.10;99.90
14014;DHT22;49110;52.584;13.408;2023-12-20T06:06:07;8.10;99.90
14014;DHT22;49110;52.584;13.408;2023-12-20T06:07:07;8.20;99.90
14014;DHT22;49110;52.584;13.408;2023-12-20T06:08:08;8.10;99.90
14014;DHT22;49110;52.584;13.408;2023-12-20T06:09:08;8.20;99.90
14014;DHT22;49110;52.584;13.408;2023-12-20T06:10:09;8.20;99.90
14014;DHT22;49110;52.584;13.408;2023-12-20T06:11:09;8.20;99.90
14014;DHT22;49110;52.584;13.408;2023-12-20T06:12:10;8.10;99.90
14014;DHT22;49110;52.584;13.408;2023-12-20T06:13:11;8.10;99.90
14014;DHT22;49110;52.584;13.408;2023-12-20T06:14:13;8.10;99.90
14014;DHT22;49110;52.584;13.408;2023-12-20T06:15:13;8.10;99.90
14014;DHT22;49110;52.584;13.408;2023-12-20T06:16:14;8.00;99.90
14014;DHT22;49110;52.584;13.408;2023-12-20T06:17:15;8.10;99.90
14014;DHT22;49110;52.584;13.408;2023-12-20T06:18:16;8.10;99.90
14014;DHT22;49110;52.584;13.408;2023-12-20T06:19:16;8.10;99.90
14014;DHT22;49110;52.584;13.408;2023-12-20T06:20:17;8.10;99.90
14014;DHT22;49110;52.584;13.408;2023-12-20T06:21:18;8.10;99.90
14014;DHT22;49110;52.584;13.408;2023-12-20T06:22:18;8.00;99.90
14014;DHT22;49110;52.584;13.408;2023-12-20T06:23:19;8.00;99.90